createdAt,value
2022-10-10T00:01:33.823Z,96636.91
2022-10-10T00:04:05.978Z,96633.94
2022-10-10T00:06:34.598Z,96638.56
2022-10-10T00:09:05.331Z,96644.78
2022-10-10T00:11:34.679Z,96636.09
2022-10-10T00:14:03.038Z,96647.19
2022-10-10T00:16:32.083Z,96642.81
2022-10-10T00:19:00.425Z,96640.56
2022-10-10T00:21:31.145Z,96637.78
2022-10-10T00:24:01.072Z,96633.63
2022-10-10T00:26:30.036Z,96636.97
2022-10-10T00:28:58.462Z,96629.53
2022-10-10T00:31:27.716Z,96633.44
2022-10-10T00:33:56.038Z,96625.44
2022-10-10T00:36:25.108Z,96627.69
2022-10-10T00:38:54.949Z,96633.19
2022-10-10T00:41:24.566Z,96632.16
2022-10-10T00:44:08.769Z,96632.75
2022-10-10T00:46:37.896Z,96633.81
2022-10-10T00:49:13.268Z,96637.34
2022-10-10T00:51:43.221Z,96635.34
2022-10-10T00:54:17.294Z,96630.66
2022-10-10T00:56:49.870Z,96635.22
2022-10-10T00:59:21.361Z,96638.41
2022-10-10T01:01:50.131Z,96630.53
2022-10-10T01:04:35.267Z,96637.00
2022-10-10T01:07:08.262Z,96631.72
2022-10-10T01:09:41.940Z,96631.25
2022-10-10T01:12:21.645Z,96632.06
2022-10-10T01:15:01.523Z,96628.06
2022-10-10T01:17:34.311Z,96617.94
2022-10-10T01:20:28.036Z,96620.78
2022-10-10T01:23:13.562Z,96618.88
2022-10-10T01:25:58.751Z,96613.59
2022-10-10T01:28:39.349Z,96615.00
2022-10-10T01:31:11.546Z,96611.47
2022-10-10T01:33:50.521Z,96613.13
2022-10-10T01:36:24.428Z,96620.41
2022-10-10T01:39:00.166Z,96609.47
2022-10-10T01:41:35.443Z,96615.81
2022-10-10T01:44:05.899Z,96609.09
2022-10-10T01:46:35.266Z,96601.47
2022-10-10T01:49:04.505Z,96603.09
2022-10-10T01:51:49.470Z,96603.22
2022-10-10T01:54:33.321Z,96599.31
2022-10-10T01:57:15.179Z,96602.84
2022-10-10T02:00:04.431Z,96595.59
2022-10-10T02:02:42.947Z,96593.34
2022-10-10T02:05:19.211Z,96590.63
2022-10-10T02:07:51.939Z,96591.94
2022-10-10T02:10:25.076Z,96590.38
2022-10-10T02:12:55.541Z,96588.63
2022-10-10T02:15:29.983Z,96584.88
2022-10-10T02:17:58.922Z,96588.66
2022-10-10T02:20:31.075Z,96583.41
2022-10-10T02:23:00.132Z,96592.94
2022-10-10T02:25:30.976Z,96598.34
2022-10-10T02:28:09.973Z,96596.13
2022-10-10T02:30:45.118Z,96604.59
2022-10-10T02:33:16.981Z,96601.06
2022-10-10T02:35:49.405Z,96610.00
2022-10-10T02:38:19.794Z,96609.88
2022-10-10T02:40:50.168Z,96612.19
2022-10-10T02:43:20.126Z,96610.41
2022-10-10T02:45:50.126Z,96604.16
2022-10-10T02:48:18.722Z,96607.94
2022-10-10T02:50:47.195Z,96606.53
2022-10-10T02:53:15.669Z,96604.41
2022-10-10T02:55:44.056Z,96603.44
2022-10-10T02:58:13.296Z,96601.88
2022-10-10T03:00:42.171Z,96601.88
2022-10-10T03:03:11.934Z,96608.19
2022-10-10T03:05:40.758Z,96604.28
2022-10-10T03:08:11.819Z,96599.19
2022-10-10T03:10:41.776Z,96602.38
2022-10-10T03:13:10.130Z,96601.56
2022-10-10T03:15:39.129Z,96602.31
2022-10-10T03:18:07.921Z,96602.00
2022-10-10T03:20:37.667Z,96593.97
2022-10-10T03:23:06.625Z,96606.00
2022-10-10T03:25:35.866Z,96601.75
2022-10-10T03:28:04.981Z,96603.06
2022-10-10T03:30:34.171Z,96603.06
2022-10-10T03:33:02.537Z,96602.16
2022-10-10T03:35:31.387Z,96596.88
2022-10-10T03:38:01.482Z,96598.53
2022-10-10T03:40:31.558Z,96596.50
2022-10-10T03:42:59.950Z,96594.16
2022-10-10T03:45:29.047Z,96595.44
2022-10-10T03:47:57.781Z,96594.44
2022-10-10T03:50:26.595Z,96588.31
2022-10-10T03:52:55.046Z,96597.63
2022-10-10T03:55:25.591Z,96600.91
2022-10-10T03:57:54.201Z,96558.16
2022-10-10T04:00:22.550Z,96597.78
2022-10-10T04:02:51.931Z,96593.50
2022-10-10T04:05:20.913Z,96590.56
2022-10-10T04:07:49.471Z,96596.13
2022-10-10T04:10:18.599Z,96601.06
2022-10-10T04:12:49.094Z,96596.13
2022-10-10T04:15:18.178Z,96601.75
2022-10-10T04:17:46.678Z,96607.38
2022-10-10T04:20:15.847Z,96603.25
2022-10-10T04:22:44.182Z,96599.13
2022-10-10T04:25:13.208Z,96592.97
2022-10-10T04:27:41.724Z,96603.94
2022-10-10T04:30:13.620Z,96601.53
2022-10-10T04:32:42.061Z,96598.09
2022-10-10T04:35:11.523Z,96596.13
2022-10-10T04:37:40.105Z,96599.41
2022-10-10T04:40:10.430Z,96593.13
2022-10-10T04:42:39.208Z,96600.41
2022-10-10T04:45:08.938Z,96592.19
2022-10-10T04:47:39.125Z,96601.00
2022-10-10T04:50:08.393Z,96598.38
2022-10-10T04:52:36.862Z,96598.94
2022-10-10T04:55:06.704Z,96607.81
2022-10-10T04:57:35.172Z,96605.09
2022-10-10T05:00:05.338Z,96602.88
2022-10-10T05:02:33.975Z,96601.50
2022-10-10T05:05:04.349Z,96614.34
2022-10-10T05:07:33.126Z,96611.84
2022-10-10T05:10:01.519Z,96610.44
2022-10-10T05:12:30.337Z,96609.84
2022-10-10T05:14:58.819Z,96617.84
2022-10-10T05:17:27.175Z,96620.69
2022-10-10T05:19:55.984Z,96619.34
2022-10-10T05:22:26.175Z,96612.88
2022-10-10T05:24:54.525Z,96609.50
2022-10-10T05:27:23.386Z,96606.16
2022-10-10T05:29:51.717Z,96617.38
2022-10-10T05:32:20.211Z,96622.16
2022-10-10T05:34:49.159Z,96622.13
2022-10-10T05:37:18.047Z,96622.13
2022-10-10T05:39:53.735Z,96625.19
2022-10-10T05:42:23.448Z,96624.81
2022-10-10T05:44:52.395Z,96622.22
2022-10-10T05:47:25.406Z,96628.59
2022-10-10T05:49:56.003Z,96631.88
2022-10-10T05:52:25.223Z,96633.09
2022-10-10T05:54:55.117Z,96634.25
2022-10-10T05:57:23.840Z,96630.28
2022-10-10T05:59:52.681Z,96634.25
2022-10-10T06:02:21.212Z,96633.81
2022-10-10T06:04:50.045Z,96634.72
2022-10-10T06:07:18.410Z,96635.91
2022-10-10T06:09:47.495Z,96635.00
2022-10-10T06:12:17.637Z,96632.16
2022-10-10T06:14:46.518Z,96630.75
2022-10-10T06:17:15.677Z,96632.97
2022-10-10T06:19:44.172Z,96642.19
2022-10-10T06:22:12.504Z,96648.09
2022-10-10T06:24:41.278Z,96645.41
2022-10-10T06:27:09.812Z,96645.06
2022-10-10T06:29:40.126Z,96655.53
2022-10-10T06:32:08.540Z,96651.53
2022-10-10T06:34:37.754Z,96664.00
2022-10-10T06:37:06.655Z,96649.06
2022-10-10T06:39:35.275Z,96657.03
2022-10-10T06:42:04.143Z,96662.47
2022-10-10T06:44:33.185Z,96655.97
2022-10-10T06:47:02.976Z,96662.00
2022-10-10T06:49:32.254Z,96663.78
2022-10-10T06:52:00.669Z,96661.81
2022-10-10T06:54:29.141Z,96659.81
2022-10-10T06:56:57.536Z,96667.66
2022-10-10T06:59:26.934Z,96662.84
2022-10-10T07:01:55.749Z,96670.25
2022-10-10T07:04:26.030Z,96673.09
2022-10-10T07:06:54.971Z,96676.06
2022-10-10T07:09:23.400Z,96676.09
2022-10-10T07:11:52.663Z,96683.66
2022-10-10T07:14:21.019Z,96686.47
2022-10-10T07:16:50.166Z,96682.97
2022-10-10T07:19:19.086Z,96685.66
2022-10-10T07:21:48.927Z,96680.59
2022-10-10T07:24:17.678Z,96673.75
2022-10-10T07:26:46.979Z,96678.81
2022-10-10T07:29:15.927Z,96682.00
2022-10-10T07:31:44.967Z,96689.06
2022-10-10T07:34:13.834Z,96696.13
2022-10-10T07:36:42.215Z,96697.75
2022-10-10T07:39:16.926Z,96701.72
2022-10-10T07:41:45.997Z,96694.56
2022-10-10T07:44:14.966Z,96693.13
2022-10-10T07:46:43.835Z,96690.75
2022-10-10T07:49:12.441Z,96701.44
2022-10-10T07:51:40.884Z,96695.41
2022-10-10T07:54:11.187Z,96696.09
2022-10-10T07:56:41.314Z,96705.97
2022-10-10T07:59:09.752Z,96702.88
2022-10-10T08:01:38.283Z,96705.91
2022-10-10T08:04:06.733Z,96712.75
2022-10-10T08:06:35.238Z,96709.88
2022-10-10T08:09:04.924Z,96713.25
2022-10-10T08:11:33.304Z,96712.53
2022-10-10T08:14:03.700Z,96712.06
2022-10-10T08:16:32.109Z,96712.13
2022-10-10T08:19:00.949Z,96706.63
2022-10-10T08:21:29.503Z,96712.53
2022-10-10T08:23:58.257Z,96706.19
2022-10-10T08:26:26.621Z,96715.75
2022-10-10T08:28:55.446Z,96716.50
2022-10-10T08:31:25.169Z,96718.91
2022-10-10T08:33:54.616Z,96711.16
2022-10-10T08:36:25.072Z,96716.38
2022-10-10T08:38:57.449Z,96724.94
2022-10-10T08:41:34.110Z,96718.50
2022-10-10T08:44:08.282Z,96718.69
2022-10-10T08:46:42.079Z,96721.22
2022-10-10T08:49:22.178Z,96718.91
2022-10-10T08:51:58.032Z,96712.09
2022-10-10T08:54:29.717Z,96719.09
2022-10-10T08:57:03.102Z,96719.50
2022-10-10T08:59:36.513Z,96720.88
2022-10-10T09:02:43.613Z,96719.63
2022-10-10T09:05:19.801Z,96733.59
2022-10-10T09:08:13.503Z,96732.13
2022-10-10T09:10:52.722Z,96721.69
2022-10-10T09:13:32.123Z,96729.59
2022-10-10T09:16:03.543Z,96719.78
2022-10-10T09:18:47.012Z,96730.09
2022-10-10T09:21:19.769Z,96723.56
2022-10-10T09:23:52.933Z,96735.03
2022-10-10T09:26:26.142Z,96717.91
2022-10-10T09:29:02.896Z,96733.25
2022-10-10T09:31:36.146Z,96735.97
2022-10-10T09:34:13.871Z,96727.25
2022-10-10T09:36:42.668Z,96738.03
2022-10-10T09:39:22.166Z,96730.25
2022-10-10T09:41:56.686Z,96747.00
2022-10-10T09:44:25.571Z,96743.19
2022-10-10T09:46:55.178Z,96745.84
2022-10-10T09:49:25.843Z,96746.63
2022-10-10T09:51:54.325Z,96739.66
2022-10-10T09:54:25.045Z,96738.41
2022-10-10T09:56:57.426Z,96732.72
2022-10-10T09:59:40.997Z,96728.72
2022-10-10T10:02:18.830Z,96746.13
2022-10-10T10:04:50.710Z,96743.19
2022-10-10T10:07:22.078Z,96739.09
2022-10-10T10:09:52.027Z,96751.38
2022-10-10T10:12:25.055Z,96753.94
2022-10-10T10:15:00.386Z,96742.16
2022-10-10T10:17:29.947Z,96755.56
2022-10-10T10:20:00.010Z,96751.13
2022-10-10T10:22:34.006Z,96749.94
2022-10-10T10:25:33.753Z,96749.22
2022-10-10T10:28:22.169Z,96756.94
2022-10-10T10:30:54.521Z,96755.97
2022-10-10T10:33:39.759Z,96754.38
2022-10-10T10:36:23.126Z,96761.03
2022-10-10T10:38:58.769Z,96753.09
2022-10-10T10:41:36.223Z,96751.81
2022-10-10T10:44:23.875Z,96749.66
2022-10-10T10:47:06.226Z,96737.59
2022-10-10T10:49:38.078Z,96748.03
2022-10-10T10:52:31.167Z,96749.94
2022-10-10T10:55:15.952Z,96733.97
2022-10-10T10:58:37.100Z,96736.81
2022-10-10T11:01:23.689Z,96740.38
2022-10-10T11:05:20.936Z,96732.25
2022-10-10T11:07:18.843Z,96733.72
2022-10-10T11:09:55.197Z,96725.81
2022-10-10T11:12:35.350Z,96712.75
2022-10-10T11:15:10.874Z,96718.94
2022-10-10T11:17:45.321Z,96717.69
2022-10-10T11:20:24.034Z,96717.06
2022-10-10T11:22:57.863Z,96713.53
2022-10-10T11:25:33.371Z,96716.84
2022-10-10T11:28:08.167Z,96718.69
2022-10-10T11:30:42.508Z,96717.06
2022-10-10T11:33:17.219Z,96705.25
2022-10-10T11:35:50.954Z,96708.16
2022-10-10T11:38:24.931Z,96706.00
2022-10-10T11:41:00.191Z,96710.19
2022-10-10T11:43:42.046Z,96707.31
2022-10-10T11:46:20.226Z,96710.75
2022-10-10T11:48:56.067Z,96702.28
2022-10-10T11:51:36.975Z,96705.56
2022-10-10T11:54:12.884Z,96700.38
2022-10-10T11:56:46.158Z,96700.59
2022-10-10T11:59:22.515Z,96699.47
2022-10-10T12:01:55.817Z,96697.56
2022-10-10T12:04:25.020Z,96700.03
2022-10-10T12:06:59.656Z,96696.97
2022-10-10T12:09:34.795Z,96697.78
2022-10-10T12:12:09.762Z,96695.19
2022-10-10T12:14:42.752Z,96691.44
2022-10-10T12:17:20.967Z,96695.03
2022-10-10T12:19:51.769Z,96687.38
2022-10-10T12:22:26.155Z,96681.53
2022-10-10T12:25:21.601Z,96687.78
2022-10-10T12:28:23.384Z,96698.53
2022-10-10T12:31:28.303Z,96691.75
2022-10-10T12:34:02.838Z,96687.81
2022-10-10T12:36:57.018Z,96693.94
2022-10-10T12:40:02.606Z,96690.94
2022-10-10T12:42:33.528Z,96692.50
2022-10-10T12:45:03.480Z,96691.31
2022-10-10T12:48:04.335Z,96692.75
2022-10-10T12:50:37.116Z,96690.91
2022-10-10T12:53:08.099Z,96681.72
2022-10-10T12:55:43.630Z,96691.81
2022-10-10T12:58:26.487Z,96690.56
2022-10-10T13:00:59.633Z,96682.56
2022-10-10T13:03:34.246Z,96686.72
2022-10-10T13:06:09.077Z,96685.63
2022-10-10T13:08:41.519Z,96682.50
2022-10-10T13:11:12.212Z,96687.56
2022-10-10T13:13:41.902Z,96687.72
2022-10-10T13:16:15.522Z,96682.28
2022-10-10T13:18:53.272Z,96686.41
2022-10-10T13:21:24.781Z,96685.66
2022-10-10T13:26:48.305Z,96676.88
2022-10-10T13:29:25.322Z,96680.72
2022-10-10T13:31:59.913Z,96676.34
2022-10-10T13:34:32.546Z,96683.72
2022-10-10T13:37:04.138Z,96682.75
2022-10-10T13:39:35.550Z,96686.69
2022-10-10T13:42:05.750Z,96678.13
2022-10-10T13:44:49.326Z,96678.44
2022-10-10T13:47:53.635Z,96683.81
2022-10-10T13:50:28.642Z,96680.66
2022-10-10T13:53:24.293Z,96678.72
2022-10-10T13:56:03.710Z,96685.47
2022-10-10T13:58:34.310Z,96677.88
2022-10-10T14:01:04.610Z,96666.44
2022-10-10T14:03:35.939Z,96675.59
2022-10-10T14:06:04.502Z,96677.13
2022-10-10T14:08:34.875Z,96678.53
2022-10-10T14:11:07.150Z,96673.66
2022-10-10T14:13:39.213Z,96668.66
2022-10-10T14:16:13.053Z,96677.09
2022-10-10T14:18:42.786Z,96680.41
2022-10-10T14:21:11.946Z,96679.91
2022-10-10T14:23:41.027Z,96683.19
2022-10-10T14:26:15.775Z,96679.13
2022-10-10T14:28:44.794Z,96670.75
2022-10-10T14:31:14.688Z,96667.81
2022-10-10T14:33:44.445Z,96676.03
2022-10-10T14:36:14.738Z,96669.41
2022-10-10T14:38:43.098Z,96671.94
2022-10-10T14:41:14.076Z,96670.84
2022-10-10T14:43:45.933Z,96682.66
2022-10-10T14:46:19.335Z,96677.75
2022-10-10T14:48:49.508Z,96680.53
2022-10-10T14:51:33.978Z,96678.59
2022-10-10T14:54:12.030Z,96685.47
2022-10-10T14:57:07.714Z,96679.41
2022-10-10T14:59:47.433Z,96687.41
2022-10-10T15:02:20.414Z,96690.41
2022-10-10T15:04:50.602Z,96685.53
2022-10-10T15:07:19.908Z,96685.84
2022-10-10T15:10:30.896Z,96683.69
2022-10-10T15:12:40.542Z,96690.59
2022-10-10T15:15:10.370Z,96689.53
2022-10-10T15:17:39.891Z,96687.63
2022-10-10T15:20:12.429Z,96687.94
2022-10-10T15:22:41.670Z,96686.03
2022-10-10T15:25:10.967Z,96683.81
2022-10-10T15:27:39.466Z,96684.91
2022-10-10T15:30:09.901Z,96686.28
2022-10-10T15:32:42.367Z,96686.31
2022-10-10T15:35:15.315Z,96684.97
2022-10-10T15:37:44.246Z,96687.41
2022-10-10T15:40:15.325Z,96691.00
2022-10-10T15:42:44.161Z,96693.72
2022-10-10T15:45:12.763Z,96682.25
2022-10-10T15:47:46.414Z,96684.78
2022-10-10T15:50:18.110Z,96685.56
2022-10-10T15:52:48.865Z,96683.06
2022-10-10T15:55:17.322Z,96686.69
2022-10-10T15:57:45.736Z,96684.25
2022-10-10T16:00:15.710Z,96685.38
2022-10-10T16:02:44.162Z,96689.81
2022-10-10T16:05:12.887Z,96687.34
2022-10-10T16:07:47.923Z,96685.72
2022-10-10T16:10:17.668Z,96682.19
2022-10-10T16:12:46.950Z,96685.75
2022-10-10T16:15:15.411Z,96686.31
2022-10-10T16:17:44.423Z,96675.66
2022-10-10T16:20:14.038Z,96692.88
2022-10-10T16:22:44.194Z,96701.63
2022-10-10T16:25:27.827Z,96698.63
2022-10-10T16:27:56.743Z,96693.72
2022-10-10T16:30:25.149Z,96704.38
2022-10-10T16:32:54.562Z,96703.84
2022-10-10T16:35:23.067Z,96708.78
2022-10-10T16:37:53.167Z,96712.34
2022-10-10T16:40:21.587Z,96714.25
2022-10-10T16:42:50.333Z,96718.09
2022-10-10T16:45:18.908Z,96710.72
2022-10-10T16:47:47.323Z,96713.47
2022-10-10T16:50:16.062Z,96717.00
2022-10-10T16:52:44.429Z,96716.22
2022-10-10T16:55:14.819Z,96715.94
2022-10-10T16:57:43.667Z,96724.16
2022-10-10T17:00:13.453Z,96724.69
2022-10-10T17:02:42.810Z,96723.03
2022-10-10T17:05:11.698Z,96738.38
2022-10-10T17:07:40.273Z,96731.25
2022-10-10T17:10:10.310Z,96733.69
2022-10-10T17:12:40.521Z,96738.38
2022-10-10T17:15:09.924Z,96737.56
2022-10-10T17:17:39.293Z,96746.56
2022-10-10T17:20:08.317Z,96753.13
2022-10-10T17:22:37.806Z,96754.50
2022-10-10T17:25:07.677Z,96756.13
2022-10-10T17:27:36.719Z,96747.66
2022-10-10T17:30:10.137Z,96748.47
2022-10-10T17:32:41.849Z,96756.16
2022-10-10T17:35:11.919Z,96761.34
2022-10-10T17:37:40.375Z,96762.94
2022-10-10T17:40:10.497Z,96768.69
2022-10-10T17:42:38.873Z,96766.25
2022-10-10T17:45:10.774Z,96769.53
2022-10-10T17:47:39.252Z,96776.38
2022-10-10T17:50:08.751Z,96770.06
2022-10-10T17:52:38.148Z,96769.00
2022-10-10T17:55:07.844Z,96753.38
2022-10-10T17:57:36.373Z,96776.63
2022-10-10T18:00:05.961Z,96775.53
2022-10-10T18:02:36.164Z,96776.88
2022-10-10T18:05:04.865Z,96779.03
2022-10-10T18:07:34.193Z,96779.88
2022-10-10T18:10:02.646Z,96782.31
2022-10-10T18:12:31.256Z,96779.59
2022-10-10T18:15:00.504Z,96780.63
2022-10-10T18:17:29.459Z,96783.91
2022-10-10T18:19:59.283Z,96783.13
2022-10-10T18:22:27.806Z,96779.88
2022-10-10T18:24:56.654Z,96785.34
2022-10-10T18:27:27.173Z,96787.50
2022-10-10T18:29:55.563Z,96790.50
2022-10-10T18:32:25.040Z,96786.97
2022-10-10T18:34:53.553Z,96790.50
2022-10-10T18:37:23.817Z,96789.69
2022-10-10T18:39:52.850Z,96791.03
2022-10-10T18:42:21.201Z,96789.09
2022-10-10T18:44:50.403Z,96798.38
2022-10-10T18:47:21.502Z,96792.28
2022-10-10T18:49:50.611Z,96785.94
2022-10-10T18:52:19.162Z,96788.69
2022-10-10T18:54:50.873Z,96789.50
2022-10-10T18:57:19.410Z,96796.31
2022-10-10T18:59:48.546Z,96789.78
2022-10-10T19:02:17.529Z,96790.88
2022-10-10T19:04:48.269Z,96796.88
2022-10-10T19:07:16.734Z,96798.75
2022-10-10T19:09:46.091Z,96795.47
2022-10-10T19:12:15.869Z,96795.16
2022-10-10T19:14:45.141Z,96794.34
2022-10-10T19:17:14.066Z,96797.03
2022-10-10T19:19:42.578Z,96796.19
2022-10-10T19:22:11.563Z,96793.16
2022-10-10T19:24:39.988Z,96791.75
2022-10-10T19:27:08.769Z,96798.59
2022-10-10T19:29:38.533Z,96797.72
2022-10-10T19:32:07.465Z,96802.63
2022-10-10T19:34:38.160Z,96794.69
2022-10-10T19:37:06.704Z,96799.00
2022-10-10T19:39:35.929Z,96803.09
2022-10-10T19:42:04.556Z,96801.94
2022-10-10T19:44:33.991Z,96798.03
2022-10-10T19:47:03.748Z,96810.59
2022-10-10T19:49:33.338Z,96804.31
2022-10-10T19:52:01.906Z,96800.22
2022-10-10T19:54:30.621Z,96803.19
2022-10-10T19:56:59.033Z,96802.56
2022-10-10T19:59:27.848Z,96813.69
2022-10-10T20:01:56.318Z,96814.97
2022-10-10T20:04:26.941Z,96811.91
2022-10-10T20:06:55.326Z,96815.38
2022-10-10T20:09:26.030Z,96820.31
2022-10-10T20:11:54.958Z,96819.50
2022-10-10T20:14:23.322Z,96826.59
2022-10-10T20:16:52.891Z,96824.13
2022-10-10T20:19:21.377Z,96836.13
2022-10-10T20:21:51.739Z,96824.91
2022-10-10T20:24:21.500Z,96832.50
2022-10-10T20:26:49.883Z,96825.94
2022-10-10T20:29:19.061Z,96834.13
2022-10-10T20:31:47.923Z,96842.78
2022-10-10T20:34:16.327Z,96836.22
2022-10-10T20:36:45.170Z,96843.78
2022-10-10T20:39:15.570Z,96836.06
2022-10-10T20:41:44.574Z,96841.94
2022-10-10T20:44:14.527Z,96848.44
2022-10-10T20:46:46.181Z,96847.28
2022-10-10T20:49:19.383Z,96840.44
2022-10-10T20:51:50.613Z,96841.47
2022-10-10T20:54:22.424Z,96843.78
2022-10-10T20:56:50.889Z,96843.97
2022-10-10T20:59:21.445Z,96844.28
2022-10-10T21:01:49.992Z,96842.31
2022-10-10T21:04:18.875Z,96843.16
2022-10-10T21:06:47.266Z,96845.88
2022-10-10T21:09:17.031Z,96837.97
2022-10-10T21:11:50.556Z,96836.34
2022-10-10T21:14:19.675Z,96842.31
2022-10-10T21:16:50.970Z,96836.38
2022-10-10T21:19:19.511Z,96846.03
2022-10-10T21:21:48.735Z,96845.69
2022-10-10T21:24:17.277Z,96842.50
2022-10-10T21:26:49.499Z,96848.09
2022-10-10T21:29:18.549Z,96849.41
2022-10-10T21:31:47.146Z,96846.69
2022-10-10T21:34:18.643Z,96854.28
2022-10-10T21:36:48.242Z,96849.09
2022-10-10T21:39:16.701Z,96851.25
2022-10-10T21:41:45.545Z,96853.72
2022-10-10T21:44:15.859Z,96852.56
2022-10-10T21:46:45.184Z,96852.81
2022-10-10T21:49:15.111Z,96854.16
2022-10-10T21:51:46.432Z,96856.59
2022-10-10T21:54:16.113Z,96853.81
2022-10-10T21:56:44.935Z,96861.81
2022-10-10T21:59:13.730Z,96850.69
2022-10-10T22:01:44.398Z,96859.09
2022-10-10T22:04:13.537Z,96862.28
2022-10-10T22:06:42.262Z,96858.69
2022-10-10T22:09:11.385Z,96857.53
2022-10-10T22:11:40.543Z,96860.75
2022-10-10T22:14:09.354Z,96864.56
2022-10-10T22:16:38.276Z,96862.81
2022-10-10T22:19:08.521Z,96873.09
2022-10-10T22:21:36.943Z,96863.63
2022-10-10T22:24:08.472Z,96872.88
2022-10-10T22:26:37.374Z,96870.88
2022-10-10T22:29:06.681Z,96872.09
2022-10-10T22:31:37.729Z,96863.28
2022-10-10T22:34:08.582Z,96864.94
2022-10-10T22:36:37.012Z,96871.53
2022-10-10T22:39:06.420Z,96870.47
2022-10-10T22:41:34.781Z,96868.88
2022-10-10T22:44:03.977Z,96880.00
2022-10-10T22:46:32.398Z,96875.41
2022-10-10T22:49:01.346Z,96879.69
2022-10-10T22:51:31.488Z,96879.09
2022-10-10T22:54:00.422Z,96875.56
2022-10-10T22:56:28.894Z,96877.94
2022-10-10T22:58:57.370Z,96880.44
2022-10-10T23:01:27.999Z,96869.28
2022-10-10T23:04:00.138Z,96878.47
2022-10-10T23:06:29.677Z,96868.41
2022-10-10T23:08:59.493Z,96871.84
2022-10-10T23:11:28.446Z,96869.00
2022-10-10T23:13:57.194Z,96871.59
2022-10-10T23:16:25.634Z,96866.69
2022-10-10T23:18:54.927Z,96875.56
2022-10-10T23:21:23.622Z,96869.22
2022-10-10T23:23:53.121Z,96872.41
2022-10-10T23:26:23.185Z,96874.06
2022-10-10T23:28:52.175Z,96867.31
2022-10-10T23:31:21.023Z,96872.06
2022-10-10T23:33:49.409Z,96863.69
2022-10-10T23:36:18.627Z,96861.94
2022-10-10T23:38:47.198Z,96859.59
2022-10-10T23:41:16.096Z,96873.75
2022-10-10T23:43:45.958Z,96876.72
2022-10-10T23:46:15.320Z,96880.16
2022-10-10T23:49:04.250Z,96887.00
2022-10-10T23:51:32.802Z,96888.31
2022-10-10T23:54:01.217Z,96893.66
2022-10-10T23:56:29.957Z,96892.00
2022-10-10T23:59:00.050Z,96893.06
